createdAt,value
2023-08-12T00:01:07.263Z,24.95
2023-08-12T00:03:34.152Z,24.94
2023-08-12T00:06:00.915Z,24.86
2023-08-12T00:08:27.593Z,24.81
2023-08-12T00:10:54.296Z,24.62
2023-08-12T00:13:21.049Z,24.64
2023-08-12T00:15:49.138Z,24.82
2023-08-12T00:18:15.954Z,24.92
2023-08-12T00:20:43.208Z,24.87
2023-08-12T00:23:09.885Z,24.81
2023-08-12T00:25:36.591Z,24.75
2023-08-12T00:28:03.414Z,24.61
2023-08-12T00:30:30.197Z,24.65
2023-08-12T00:32:56.913Z,24.64
2023-08-12T00:35:24.479Z,24.59
2023-08-12T00:37:51.203Z,24.59
2023-08-12T00:40:18.033Z,24.62
2023-08-12T00:42:44.716Z,24.72
2023-08-12T00:45:13.261Z,24.74
2023-08-12T00:47:40.247Z,24.70
2023-08-12T00:50:13.564Z,24.76
2023-08-12T00:52:41.504Z,24.70
2023-08-12T00:55:08.898Z,24.12
2023-08-12T00:57:36.689Z,24.24
2023-08-12T01:00:04.415Z,24.49
2023-08-12T01:02:31.694Z,24.68
2023-08-12T01:04:59.613Z,24.62
2023-08-12T01:07:26.521Z,24.71
2023-08-12T01:09:53.762Z,24.64
2023-08-12T01:12:30.250Z,24.80
2023-08-12T01:15:10.378Z,24.67
2023-08-12T01:17:44.881Z,24.70
2023-08-12T01:20:12.816Z,24.72
2023-08-12T01:22:41.538Z,24.77
2023-08-12T01:25:09.317Z,24.72
2023-08-12T01:27:37.282Z,24.69
2023-08-12T01:30:07.238Z,24.51
2023-08-12T01:32:47.918Z,24.52
2023-08-12T01:35:34.843Z,24.37
2023-08-12T01:38:06.648Z,24.27
2023-08-12T01:40:35.281Z,24.26
2023-08-12T01:43:09.178Z,24.34
2023-08-12T01:45:35.897Z,24.47
2023-08-12T01:48:03.416Z,24.45
2023-08-12T01:50:30.245Z,24.42
2023-08-12T01:52:56.933Z,24.33
2023-08-12T01:55:23.907Z,24.19
2023-08-12T01:57:50.615Z,24.04
2023-08-12T02:00:17.547Z,24.08
2023-08-12T02:02:45.279Z,23.99
2023-08-12T02:05:12.073Z,24.16
2023-08-12T02:07:38.811Z,24.30
2023-08-12T02:10:09.029Z,24.51
2023-08-12T02:12:35.737Z,24.33
2023-08-12T02:15:02.462Z,24.44
2023-08-12T02:17:29.219Z,24.36
2023-08-12T02:19:55.943Z,24.37
2023-08-12T02:22:23.542Z,24.48
2023-08-12T02:24:50.239Z,24.45
2023-08-12T02:27:16.947Z,24.33
2023-08-12T02:29:43.644Z,24.50
2023-08-12T02:32:10.417Z,24.55
2023-08-12T02:34:37.108Z,24.48
2023-08-12T02:37:03.864Z,24.49
2023-08-12T02:39:30.806Z,24.59
2023-08-12T02:41:57.580Z,24.62
2023-08-12T02:44:24.304Z,24.37
2023-08-12T02:46:51.103Z,24.27
2023-08-12T02:49:17.798Z,24.26
2023-08-12T02:51:44.521Z,24.49
2023-08-12T02:54:11.228Z,24.65
2023-08-12T02:56:37.902Z,24.76
2023-08-12T02:59:04.736Z,24.81
2023-08-12T03:01:31.507Z,24.90
2023-08-12T03:03:58.285Z,24.89
2023-08-12T03:06:25.023Z,24.52
2023-08-12T03:08:51.720Z,24.38
2023-08-12T03:11:18.429Z,24.16
2023-08-12T03:13:45.574Z,24.27
2023-08-12T03:16:13.578Z,24.17
2023-08-12T03:18:40.315Z,24.41
2023-08-12T03:21:10.204Z,24.36
2023-08-12T03:23:38.928Z,24.33
2023-08-12T03:26:05.885Z,24.54
2023-08-12T03:28:32.693Z,24.59
2023-08-12T03:30:59.441Z,24.72
2023-08-12T03:33:26.179Z,24.67
2023-08-12T03:35:53.593Z,24.48
2023-08-12T03:38:20.323Z,24.76
2023-08-12T03:40:46.994Z,24.81
2023-08-12T03:43:13.768Z,24.78
2023-08-12T03:45:41.710Z,24.78
2023-08-12T03:48:08.611Z,24.86
2023-08-12T03:50:37.922Z,24.78
2023-08-12T03:53:05.100Z,24.90
2023-08-12T03:55:32.940Z,24.67
2023-08-12T03:58:00.791Z,24.72
2023-08-12T04:00:27.707Z,24.42
2023-08-12T04:02:55.207Z,24.17
2023-08-12T04:05:22.000Z,24.41
2023-08-12T04:07:48.682Z,24.50
2023-08-12T04:10:15.416Z,24.42
2023-08-12T04:13:02.051Z,24.29
2023-08-12T04:15:52.613Z,24.24
2023-08-12T04:18:39.295Z,23.97
2023-08-12T04:21:06.612Z,24.12
2023-08-12T04:23:33.357Z,24.32
2023-08-12T04:26:00.066Z,24.31
2023-08-12T04:28:26.755Z,24.42
2023-08-12T04:30:53.516Z,24.24
2023-08-12T04:33:20.272Z,24.06
2023-08-12T04:35:47.149Z,24.13
2023-08-12T04:38:13.851Z,24.26
2023-08-12T04:40:41.761Z,24.27
2023-08-12T04:43:11.718Z,24.32
2023-08-12T04:45:38.924Z,24.29
2023-08-12T04:48:06.735Z,24.26
2023-08-12T04:50:33.506Z,24.15
2023-08-12T04:53:00.193Z,23.80
2023-08-12T04:55:27.159Z,24.02
2023-08-12T04:57:53.972Z,24.26
2023-08-12T05:00:21.655Z,24.40
2023-08-12T05:02:48.426Z,24.68
2023-08-12T05:05:15.293Z,24.81
2023-08-12T05:07:42.021Z,24.90
2023-08-12T05:10:09.064Z,25.02
2023-08-12T05:12:35.764Z,24.79
2023-08-12T05:15:02.687Z,24.99
2023-08-12T05:17:29.446Z,25.21
2023-08-12T05:19:56.187Z,25.26
2023-08-12T05:22:22.910Z,25.14
2023-08-12T05:24:49.627Z,24.67
2023-08-12T05:27:16.331Z,24.99
2023-08-12T05:29:43.154Z,25.30
2023-08-12T05:32:10.164Z,24.61
2023-08-12T05:34:37.159Z,24.72
2023-08-12T05:37:03.911Z,24.99
2023-08-12T05:39:30.612Z,25.14
2023-08-12T05:41:57.346Z,25.22
2023-08-12T05:44:24.080Z,25.20
2023-08-12T05:46:50.837Z,25.17
2023-08-12T05:49:17.559Z,25.36
2023-08-12T05:51:44.330Z,25.40
2023-08-12T05:54:11.048Z,25.45
2023-08-12T05:56:37.740Z,25.52
2023-08-12T05:59:04.663Z,25.69
2023-08-12T06:01:31.461Z,25.83
2023-08-12T06:03:58.207Z,25.84
2023-08-12T06:06:25.474Z,26.10
2023-08-12T06:08:52.188Z,25.97
2023-08-12T06:11:18.925Z,25.94
2023-08-12T06:13:45.710Z,25.91
2023-08-12T06:16:12.494Z,25.95
2023-08-12T06:18:39.190Z,25.83
2023-08-12T06:21:05.992Z,25.99
2023-08-12T06:23:32.656Z,25.93
2023-08-12T06:25:59.397Z,25.92
2023-08-12T06:28:31.687Z,25.76
2023-08-12T06:30:58.888Z,26.00
2023-08-12T06:33:25.582Z,25.85
2023-08-12T06:36:08.244Z,25.87
2023-08-12T06:38:54.969Z,25.93
2023-08-12T06:41:38.434Z,26.17
2023-08-12T06:44:05.501Z,26.23
2023-08-12T06:46:34.301Z,26.66
2023-08-12T06:49:01.004Z,26.95
2023-08-12T06:51:27.695Z,27.34
2023-08-12T06:53:54.383Z,27.12
2023-08-12T06:56:21.116Z,27.83
2023-08-12T06:58:47.923Z,28.14
2023-08-12T07:01:16.075Z,28.00
2023-08-12T07:03:42.884Z,28.06
2023-08-12T07:06:09.956Z,27.39
2023-08-12T07:08:36.740Z,27.34
2023-08-12T07:11:03.463Z,27.21
2023-08-12T07:13:30.159Z,27.01
2023-08-12T07:15:57.035Z,26.68
2023-08-12T07:18:23.798Z,26.55
2023-08-12T07:20:51.024Z,26.43
2023-08-12T07:23:17.727Z,26.42
2023-08-12T07:25:46.875Z,26.11
2023-08-12T07:28:13.605Z,26.16
2023-08-12T07:30:40.323Z,26.03
2023-08-12T07:33:08.616Z,25.95
2023-08-12T07:35:35.440Z,25.86
2023-08-12T07:38:02.179Z,25.85
2023-08-12T07:40:28.989Z,25.98
2023-08-12T07:42:55.714Z,25.94
2023-08-12T07:45:23.328Z,26.19
2023-08-12T07:47:51.266Z,26.07
2023-08-12T07:50:18.774Z,26.15
2023-08-12T07:52:45.607Z,26.23
2023-08-12T07:55:12.368Z,26.16
2023-08-12T07:57:39.320Z,26.93
2023-08-12T08:00:06.778Z,27.41
2023-08-12T08:02:33.566Z,27.07
2023-08-12T08:05:00.438Z,26.73
2023-08-12T08:07:27.138Z,26.60
2023-08-12T08:09:53.819Z,26.47
2023-08-12T08:12:20.520Z,26.54
2023-08-12T08:14:47.233Z,26.39
2023-08-12T08:17:14.010Z,26.11
2023-08-12T08:19:40.817Z,26.09
2023-08-12T08:22:07.542Z,25.94
2023-08-12T08:24:34.341Z,25.31
2023-08-12T08:27:01.134Z,24.79
2023-08-12T08:29:27.844Z,24.23
2023-08-12T08:31:54.572Z,23.41
2023-08-12T08:34:21.288Z,23.55
2023-08-12T08:36:48.005Z,23.68
2023-08-12T08:39:14.706Z,23.30
2023-08-12T08:41:42.227Z,23.13
2023-08-12T08:44:10.022Z,23.20
2023-08-12T08:46:37.697Z,22.74
2023-08-12T08:49:05.691Z,22.75
2023-08-12T08:51:33.025Z,23.05
2023-08-12T08:54:03.775Z,23.60
2023-08-12T08:56:32.723Z,24.10
2023-08-12T08:59:00.089Z,23.98
2023-08-12T09:01:29.714Z,23.85
2023-08-12T09:03:58.264Z,23.99
2023-08-12T09:06:30.360Z,23.89
2023-08-12T09:08:57.212Z,23.79
2023-08-12T09:11:24.911Z,24.10
2023-08-12T09:13:51.608Z,24.92
2023-08-12T09:16:19.578Z,25.50
2023-08-12T09:18:46.347Z,25.75
2023-08-12T09:21:13.100Z,26.27
2023-08-12T09:23:41.958Z,26.71
2023-08-12T09:26:16.879Z,27.06
2023-08-12T09:28:43.846Z,27.16
2023-08-12T09:31:25.590Z,27.30
2023-08-12T09:33:55.512Z,27.56
2023-08-12T09:36:23.157Z,27.41
2023-08-12T09:38:50.039Z,27.43
2023-08-12T09:41:16.760Z,27.59
2023-08-12T09:43:44.278Z,27.67
2023-08-12T09:46:14.753Z,27.78
2023-08-12T09:48:41.594Z,27.43
2023-08-12T09:51:09.637Z,27.68
2023-08-12T09:53:37.000Z,27.57
2023-08-12T09:56:13.484Z,27.87
2023-08-12T09:58:42.548Z,28.13
2023-08-12T10:01:11.715Z,27.59
2023-08-12T10:03:39.383Z,27.82
2023-08-12T10:06:06.588Z,27.47
2023-08-12T10:08:35.554Z,27.78
2023-08-12T10:11:12.565Z,27.58
2023-08-12T10:13:41.485Z,27.66
2023-08-12T10:16:09.591Z,27.13
2023-08-12T10:18:39.622Z,27.07
2023-08-12T10:21:10.885Z,26.92
2023-08-12T10:23:39.181Z,26.47
2023-08-12T10:26:07.319Z,26.64
2023-08-12T10:28:35.092Z,26.71
2023-08-12T10:31:02.413Z,26.82
2023-08-12T10:33:30.030Z,26.98
2023-08-12T10:35:56.985Z,27.28
2023-08-12T10:38:25.964Z,26.95
2023-08-12T10:40:53.472Z,26.59
2023-08-12T10:43:20.146Z,26.64
2023-08-12T10:46:05.029Z,26.62
2023-08-12T10:48:31.832Z,26.73
2023-08-12T10:51:00.786Z,26.95
2023-08-12T10:53:33.859Z,26.98
2023-08-12T10:56:03.552Z,26.98
2023-08-12T10:58:34.941Z,27.11
2023-08-12T11:01:01.800Z,26.88
2023-08-12T11:03:34.375Z,27.13
2023-08-12T11:06:03.621Z,27.24
2023-08-12T11:08:30.473Z,27.07
2023-08-12T11:10:57.916Z,26.98
2023-08-12T11:13:28.213Z,26.67
2023-08-12T11:16:10.664Z,26.49
2023-08-12T11:18:37.889Z,26.57
2023-08-12T11:21:06.508Z,26.49
2023-08-12T11:23:33.771Z,26.46
2023-08-12T11:26:01.852Z,26.71
2023-08-12T11:28:28.599Z,27.13
2023-08-12T11:30:56.553Z,27.60
2023-08-12T11:33:25.166Z,27.90
2023-08-12T11:35:51.976Z,27.64
2023-08-12T11:38:19.252Z,27.76
2023-08-12T11:40:45.966Z,26.97
2023-08-12T11:43:12.648Z,27.10
2023-08-12T11:45:43.258Z,27.28
2023-08-12T11:48:10.770Z,27.44
2023-08-12T11:50:37.905Z,27.70
2023-08-12T11:53:05.201Z,27.44
2023-08-12T11:55:32.138Z,27.20
2023-08-12T11:57:59.382Z,27.19
2023-08-12T12:00:26.658Z,27.02
2023-08-12T12:02:55.847Z,26.92
2023-08-12T12:05:29.413Z,27.19
2023-08-12T12:07:56.310Z,27.20
2023-08-12T12:10:35.481Z,27.02
2023-08-12T12:13:05.279Z,27.00
2023-08-12T12:15:38.739Z,27.51
2023-08-12T12:18:10.895Z,27.67
2023-08-12T12:20:37.770Z,27.28
2023-08-12T12:23:07.775Z,27.42
2023-08-12T12:25:35.293Z,27.60
2023-08-12T12:28:01.999Z,27.49
2023-08-12T12:30:28.812Z,27.34
2023-08-12T12:32:55.677Z,27.23
2023-08-12T12:35:22.380Z,27.48
2023-08-12T12:37:49.069Z,27.54
2023-08-12T12:40:15.768Z,27.14
2023-08-12T12:42:42.458Z,27.08
2023-08-12T12:45:09.904Z,26.81
2023-08-12T12:47:36.657Z,27.21
2023-08-12T12:50:03.442Z,27.40
2023-08-12T12:52:30.159Z,27.79
2023-08-12T12:54:56.890Z,28.10
2023-08-12T12:57:23.577Z,27.85
2023-08-12T12:59:50.252Z,27.33
2023-08-12T13:02:17.090Z,26.55
2023-08-12T13:04:43.761Z,26.41
2023-08-12T13:07:10.502Z,26.42
2023-08-12T13:09:37.301Z,26.25
2023-08-12T13:12:04.210Z,26.16
2023-08-12T13:14:30.913Z,26.24
2023-08-12T13:16:57.613Z,26.46
2023-08-12T13:19:24.306Z,26.43
2023-08-12T13:21:50.994Z,26.20
2023-08-12T13:24:17.732Z,26.40
2023-08-12T13:26:44.405Z,26.38
2023-08-12T13:29:11.063Z,26.54
2023-08-12T13:31:37.837Z,26.51
2023-08-12T13:34:04.593Z,26.78
2023-08-12T13:36:32.412Z,26.92
2023-08-12T13:39:01.300Z,26.34
2023-08-12T13:41:28.261Z,26.74
2023-08-12T13:43:54.946Z,26.47
2023-08-12T13:46:24.675Z,26.46
2023-08-12T13:48:51.353Z,26.23
2023-08-12T13:51:18.231Z,26.22
2023-08-12T13:53:46.405Z,26.23
2023-08-12T13:56:13.105Z,26.57
2023-08-12T13:58:39.792Z,26.83
2023-08-12T14:01:06.536Z,26.98
2023-08-12T14:03:34.419Z,27.30
2023-08-12T14:06:01.333Z,27.67
2023-08-12T14:08:28.222Z,27.74
2023-08-12T14:10:55.051Z,27.86
2023-08-12T14:13:21.864Z,27.97
2023-08-12T14:15:48.600Z,27.45
2023-08-12T14:18:15.462Z,27.82
2023-08-12T14:20:42.220Z,26.95
2023-08-12T14:23:08.933Z,26.71
2023-08-12T14:25:35.726Z,27.14
2023-08-12T14:28:06.128Z,27.16
2023-08-12T14:30:32.847Z,27.11
2023-08-12T14:33:00.841Z,26.92
2023-08-12T14:35:27.625Z,27.11
2023-08-12T14:37:54.359Z,26.42
2023-08-12T14:40:21.046Z,26.71
2023-08-12T14:42:47.771Z,26.71
2023-08-12T14:45:14.562Z,26.49
2023-08-12T14:47:41.296Z,26.68
2023-08-12T14:50:08.414Z,26.88
2023-08-12T14:52:35.347Z,26.71
2023-08-12T14:55:02.166Z,26.97
2023-08-12T14:57:28.951Z,26.70
2023-08-12T14:59:55.636Z,27.00
2023-08-12T15:02:22.904Z,27.23
2023-08-12T15:04:50.501Z,27.08
2023-08-12T15:07:17.675Z,26.70
2023-08-12T15:09:44.514Z,26.70
2023-08-12T15:12:11.224Z,26.84
2023-08-12T15:14:37.973Z,26.58
2023-08-12T15:17:04.685Z,26.61
2023-08-12T15:19:31.412Z,26.85
2023-08-12T15:21:59.171Z,26.50
2023-08-12T15:24:26.011Z,26.46
2023-08-12T15:26:52.742Z,26.65
2023-08-12T15:29:19.440Z,26.60
2023-08-12T15:31:46.184Z,26.28
2023-08-12T15:34:12.875Z,26.40
2023-08-12T15:36:39.659Z,26.43
2023-08-12T15:39:06.403Z,26.52
2023-08-12T15:41:33.132Z,26.40
2023-08-12T15:43:59.817Z,26.43
2023-08-12T15:46:26.611Z,26.36
2023-08-12T15:48:53.398Z,26.54
2023-08-12T15:51:20.097Z,26.41
2023-08-12T15:53:46.880Z,26.38
2023-08-12T15:56:13.645Z,26.58
2023-08-12T15:58:40.447Z,26.61
2023-08-12T16:01:07.159Z,26.37
2023-08-12T16:03:36.987Z,26.66
2023-08-12T16:06:03.800Z,26.91
2023-08-12T16:08:30.518Z,26.63
2023-08-12T16:10:57.222Z,26.79
2023-08-12T16:13:23.964Z,26.81
2023-08-12T16:15:50.689Z,26.65
2023-08-12T16:18:17.490Z,26.55
2023-08-12T16:20:44.257Z,26.64
2023-08-12T16:23:11.213Z,26.64
2023-08-12T16:25:37.991Z,26.65
2023-08-12T16:28:07.988Z,27.10
2023-08-12T16:30:34.741Z,27.20
2023-08-12T16:33:01.560Z,27.35
2023-08-12T16:35:28.376Z,27.27
2023-08-12T16:37:55.088Z,27.41
2023-08-12T16:40:21.797Z,27.85
2023-08-12T16:42:48.521Z,27.79
2023-08-12T16:45:15.181Z,27.80
2023-08-12T16:47:41.929Z,28.16
2023-08-12T16:50:09.124Z,27.49
2023-08-12T16:52:35.914Z,27.59
2023-08-12T16:55:03.408Z,27.73
2023-08-12T16:57:30.126Z,27.39
2023-08-12T16:59:57.071Z,27.39
2023-08-12T17:02:23.888Z,27.10
2023-08-12T17:04:50.565Z,27.16
2023-08-12T17:07:17.362Z,27.31
2023-08-12T17:09:45.912Z,27.35
2023-08-12T17:12:14.656Z,27.59
2023-08-12T17:14:41.669Z,27.63
2023-08-12T17:17:08.827Z,27.78
2023-08-12T17:19:35.553Z,27.99
2023-08-12T17:22:02.361Z,28.11
2023-08-12T17:24:29.170Z,28.33
2023-08-12T17:26:55.878Z,28.67
2023-08-12T17:29:25.762Z,28.80
2023-08-12T17:31:52.459Z,28.96
2023-08-12T17:34:19.224Z,28.87
2023-08-12T17:36:45.934Z,28.61
2023-08-12T17:39:12.761Z,28.44
2023-08-12T17:41:39.512Z,28.11
2023-08-12T17:44:06.425Z,28.00
2023-08-12T17:46:33.118Z,28.30
2023-08-12T17:48:59.865Z,28.36
2023-08-12T17:51:26.550Z,28.48
2023-08-12T17:53:55.355Z,28.41
2023-08-12T17:56:22.122Z,28.39
2023-08-12T17:58:48.841Z,28.55
2023-08-12T18:01:15.596Z,28.61
2023-08-12T18:03:42.429Z,28.72
2023-08-12T18:06:11.609Z,28.69
2023-08-12T18:08:38.356Z,28.81
2023-08-12T18:11:05.118Z,28.91
2023-08-12T18:13:31.826Z,29.07
2023-08-12T18:16:00.003Z,29.06
2023-08-12T18:18:26.927Z,28.68
2023-08-12T18:20:53.605Z,28.63
2023-08-12T18:23:20.849Z,28.69
2023-08-12T18:25:47.542Z,28.71
2023-08-12T18:28:14.862Z,28.15
2023-08-12T18:30:41.736Z,28.16
2023-08-12T18:33:08.558Z,28.34
2023-08-12T18:35:35.275Z,28.35
2023-08-12T18:38:02.354Z,28.23
2023-08-12T18:40:31.726Z,27.94
2023-08-12T18:42:59.324Z,28.06
2023-08-12T18:45:26.238Z,28.12
2023-08-12T18:47:53.070Z,28.11
2023-08-12T18:50:19.862Z,28.22
2023-08-12T18:52:46.541Z,27.92
2023-08-12T18:55:13.335Z,27.96
2023-08-12T18:57:39.976Z,27.92
2023-08-12T19:00:08.779Z,27.92
2023-08-12T19:02:35.691Z,27.91
2023-08-12T19:05:03.107Z,27.58
2023-08-12T19:07:30.002Z,27.43
2023-08-12T19:09:56.778Z,27.44
2023-08-12T19:12:23.897Z,27.40
2023-08-12T19:14:50.671Z,27.41
2023-08-12T19:17:18.863Z,27.42
2023-08-12T19:19:46.594Z,27.58
2023-08-12T19:22:13.497Z,27.63
2023-08-12T19:24:40.531Z,27.56
2023-08-12T19:27:09.352Z,27.42
2023-08-12T19:29:36.068Z,27.25
2023-08-12T19:32:03.058Z,27.08
2023-08-12T19:34:31.329Z,27.14
2023-08-12T19:36:59.326Z,27.01
2023-08-12T19:39:26.053Z,27.16
2023-08-12T19:41:52.835Z,27.27
2023-08-12T19:44:19.575Z,27.36
2023-08-12T19:46:46.388Z,27.43
2023-08-12T19:49:13.097Z,27.41
2023-08-12T19:51:39.803Z,27.34
2023-08-12T19:54:06.541Z,27.25
2023-08-12T19:56:33.273Z,26.97
2023-08-12T19:58:59.988Z,26.77
2023-08-12T20:01:26.958Z,26.60
2023-08-12T20:03:53.749Z,26.64
2023-08-12T20:06:20.492Z,26.62
2023-08-12T20:08:47.198Z,26.64
2023-08-12T20:11:13.931Z,26.63
2023-08-12T20:13:40.724Z,26.76
2023-08-12T20:16:07.476Z,26.90
2023-08-12T20:18:34.180Z,26.73
2023-08-12T20:21:00.875Z,26.62
2023-08-12T20:23:27.629Z,26.46
2023-08-12T20:25:54.325Z,26.22
2023-08-12T20:28:21.073Z,26.17
2023-08-12T20:30:47.853Z,26.46
2023-08-12T20:33:14.628Z,26.57
2023-08-12T20:35:41.420Z,26.51
2023-08-12T20:38:08.132Z,26.36
2023-08-12T20:40:35.014Z,26.07
2023-08-12T20:43:01.736Z,26.06
2023-08-12T20:45:28.458Z,26.10
2023-08-12T20:47:55.176Z,26.12
2023-08-12T20:50:25.097Z,26.16
2023-08-12T20:52:51.779Z,26.14
2023-08-12T20:55:18.553Z,25.95
2023-08-12T20:57:45.245Z,25.77
2023-08-12T21:00:12.354Z,25.55
2023-08-12T21:02:40.115Z,25.66
2023-08-12T21:05:07.141Z,25.61
2023-08-12T21:07:33.822Z,25.60
2023-08-12T21:10:00.487Z,25.62
2023-08-12T21:12:27.236Z,25.68
2023-08-12T21:14:53.951Z,25.61
2023-08-12T21:17:20.669Z,25.54
2023-08-12T21:19:47.493Z,25.68
2023-08-12T21:22:14.524Z,25.67
2023-08-12T21:24:41.476Z,25.60
2023-08-12T21:27:08.195Z,25.64
2023-08-12T21:29:36.051Z,25.58
2023-08-12T21:32:02.841Z,25.57
2023-08-12T21:34:29.585Z,25.50
2023-08-12T21:36:56.304Z,25.59
2023-08-12T21:39:23.090Z,25.51
2023-08-12T21:41:49.762Z,25.53
2023-08-12T21:44:16.452Z,25.64
2023-08-12T21:46:43.125Z,25.68
2023-08-12T21:49:09.856Z,25.64
2023-08-12T21:51:36.682Z,25.65
2023-08-12T21:54:04.242Z,25.71
2023-08-12T21:56:30.925Z,25.71
2023-08-12T21:58:57.663Z,25.69
2023-08-12T22:01:24.392Z,25.68
2023-08-12T22:03:51.078Z,25.73
2023-08-12T22:06:18.564Z,25.85
2023-08-12T22:08:45.587Z,25.78
2023-08-12T22:11:12.275Z,25.93
2023-08-12T22:13:39.033Z,25.90
2023-08-12T22:16:05.761Z,26.00
2023-08-12T22:18:32.594Z,25.95
2023-08-12T22:21:01.790Z,25.70
2023-08-12T22:23:28.595Z,25.48
2023-08-12T22:25:55.351Z,25.36
2023-08-12T22:28:22.048Z,25.17
2023-08-12T22:30:49.092Z,25.12
2023-08-12T22:33:16.362Z,24.83
2023-08-12T22:35:43.118Z,24.72
2023-08-12T22:38:09.926Z,24.50
2023-08-12T22:40:36.641Z,24.40
2023-08-12T22:43:03.813Z,24.37
2023-08-12T22:45:31.509Z,24.50
2023-08-12T22:47:58.287Z,24.52
2023-08-12T22:50:24.985Z,24.40
2023-08-12T22:52:51.672Z,24.30
2023-08-12T22:55:18.435Z,24.32
2023-08-12T22:57:45.247Z,24.29
2023-08-12T23:00:12.297Z,24.27
2023-08-12T23:02:39.090Z,24.32
2023-08-12T23:05:06.286Z,24.39
2023-08-12T23:07:32.986Z,24.38
2023-08-12T23:09:59.862Z,24.50
2023-08-12T23:12:27.938Z,24.37
2023-08-12T23:14:55.617Z,24.45
2023-08-12T23:17:22.409Z,24.37
2023-08-12T23:19:49.202Z,24.23
2023-08-12T23:22:16.823Z,24.24
2023-08-12T23:24:43.813Z,24.02
2023-08-12T23:27:10.540Z,23.82
2023-08-12T23:29:37.269Z,23.79
2023-08-12T23:32:04.094Z,23.70
2023-08-12T23:34:31.897Z,23.61
2023-08-12T23:36:58.615Z,23.69
2023-08-12T23:39:25.337Z,23.80
2023-08-12T23:41:52.038Z,23.88
2023-08-12T23:44:19.082Z,23.73
2023-08-12T23:46:45.906Z,24.04
2023-08-12T23:49:12.833Z,24.43
2023-08-12T23:51:40.671Z,24.47
2023-08-12T23:54:08.356Z,24.59
2023-08-12T23:56:35.985Z,24.50
2023-08-12T23:59:03.104Z,24.33
